Time;durP1;ratioP1;P1;durP2;ratioP2;P2;SDS_P1;SDS_P2;PMS_P1;PMS_P2;Temp;Humidity;BMP_temperature;BMP_pressure;BME280_temperature;BME280_humidity;BME280_pressure;Samples;Min_cycle;Max_cycle;Signal;HPM_P1;HPM_P2
2023/12/05 00:00:05;;;;;;;57.30;26.10;;;;;;;-3.50;83.95;99138.83;108318;1303;22249;-46
2023/12/05 00:02:30;;;;;;;62.20;26.80;;;;;;;-3.43;84.29;99136.42;108330;1303;23020;-49
2023/12/05 00:04:56;;;;;;;58.50;26.30;;;;;;;-3.44;84.11;99134.88;108308;1303;22227;-44
2023/12/05 00:07:22;;;;;;;59.80;26.80;;;;;;;-3.39;84.20;99130.08;108314;1303;22264;-44
2023/12/05 00:09:48;;;;;;;58.50;27.20;;;;;;;-3.35;84.32;99130.23;108310;1302;22438;-49
2023/12/05 00:12:13;;;;;;;57.40;26.40;;;;;;;-3.31;84.31;99130.92;108345;1303;22194;-45
2023/12/05 00:14:39;;;;;;;56.60;26.60;;;;;;;-3.30;84.14;99134.70;108328;1303;22641;-45
2023/12/05 00:17:04;;;;;;;57.90;26.20;;;;;;;-3.30;83.92;99128.52;108355;1303;22302;-46
2023/12/05 00:19:30;;;;;;;58.30;24.30;;;;;;;-3.31;83.93;99124.73;108324;1303;22253;-45
2023/12/05 00:21:55;;;;;;;54.10;24.70;;;;;;;-3.33;83.81;99123.90;108339;1303;23188;-46
2023/12/05 00:24:20;;;;;;;51.10;23.00;;;;;;;-3.38;83.70;99121.85;108329;1303;22583;-44
2023/12/05 00:26:46;;;;;;;50.70;24.00;;;;;;;-3.46;84.01;99122.89;108324;1303;22403;-46
2023/12/05 00:29:11;;;;;;;48.30;21.30;;;;;;;-3.50;84.10;99120.83;108330;1303;23181;-49
2023/12/05 00:31:37;;;;;;;51.80;23.60;;;;;;;-3.58;84.16;99110.58;108313;1303;22246;-48
2023/12/05 00:34:02;;;;;;;50.50;23.40;;;;;;;-3.59;84.31;99105.10;108327;1303;22250;-47
2023/12/05 00:36:27;;;;;;;51.50;23.00;;;;;;;-3.60;84.54;99100.81;108333;1303;22243;-49
2023/12/05 00:38:53;;;;;;;46.70;22.80;;;;;;;-3.62;84.86;99098.75;108325;1303;23101;-46
2023/12/05 00:41:18;;;;;;;51.70;25.40;;;;;;;-3.62;85.25;99096.02;108340;1302;22225;-49
2023/12/05 00:43:43;;;;;;;48.40;23.00;;;;;;;-3.61;85.23;99091.03;108340;1303;22239;-48
2023/12/05 00:46:09;;;;;;;47.50;21.80;;;;;;;-3.65;85.14;99088.64;108330;1302;22235;-47
2023/12/05 00:48:34;;;;;;;52.70;22.80;;;;;;;-3.66;85.31;99089.50;108321;1302;22388;-48
2023/12/05 00:50:59;;;;;;;52.00;23.70;;;;;;;-3.65;85.48;99087.77;108331;1298;22229;-47
2023/12/05 00:53:25;;;;;;;53.90;25.20;;;;;;;-3.63;85.44;99087.09;108345;1303;22280;-44
2023/12/05 00:55:50;;;;;;;48.60;22.90;;;;;;;-3.61;85.42;99084.52;108349;1303;23194;-46
2023/12/05 00:58:16;;;;;;;49.10;24.40;;;;;;;-3.57;85.42;99075.79;108328;1303;22323;-44
2023/12/05 01:00:41;;;;;;;47.30;22.70;;;;;;;-3.54;85.35;99071.83;108325;1302;22384;-46
2023/12/05 01:03:07;;;;;;;49.50;23.90;;;;;;;-3.51;85.26;99069.09;108343;1302;22300;-46
2023/12/05 01:05:33;;;;;;;44.00;21.90;;;;;;;-3.52;85.09;99072.17;108358;1303;22481;-49
2023/12/05 01:07:59;;;;;;;48.40;22.80;;;;;;;-3.52;85.01;99075.94;108323;1303;22473;-48
2023/12/05 01:10:25;;;;;;;42.60;21.60;;;;;;;-3.52;84.85;99079.71;108335;1303;22328;-45
2023/12/05 01:12:50;;;;;;;50.30;23.10;;;;;;;-3.52;84.82;99080.05;108327;1303;22258;-47
2023/12/05 01:15:16;;;;;;;44.30;21.90;;;;;;;-3.54;84.79;99080.91;108266;1303;22269;-45
2023/12/05 01:17:41;;;;;;;47.80;22.80;;;;;;;-3.54;84.73;99081.08;108343;1303;22471;-44
2023/12/05 01:20:09;;;;;;;44.40;22.20;;;;;;;-3.54;84.82;99086.23;108331;1303;22507;-45
2023/12/05 01:22:34;;;;;;;50.90;22.00;;;;;;;-3.56;84.58;99088.29;108343;1302;22420;-44
2023/12/05 01:25:00;;;;;;;48.60;24.20;;;;;;;-3.57;84.59;99094.11;108336;1303;22271;-47
2023/12/05 01:27:25;;;;;;;55.40;24.70;;;;;;;-3.59;84.51;99093.43;108338;1303;22719;-47
2023/12/05 01:29:51;;;;;;;58.30;23.70;;;;;;;-3.62;84.64;99092.58;108332;1303;22457;-48
2023/12/05 01:32:16;;;;;;;57.40;23.90;;;;;;;-3.66;84.73;99091.39;108351;1303;22360;-45
2023/12/05 01:34:42;;;;;;;47.30;23.10;;;;;;;-3.70;84.83;99085.39;108345;1303;22427;-48
2023/12/05 01:37:07;;;;;;;46.80;22.70;;;;;;;-3.71;84.85;99082.81;108333;1301;22253;-46
2023/12/05 01:39:32;;;;;;;46.00;22.20;;;;;;;-3.75;85.09;99082.14;108347;1303;22414;-47
2023/12/05 01:41:59;;;;;;;51.10;21.70;;;;;;;-3.78;85.12;99083.18;108341;1303;22617;-50
2023/12/05 01:44:25;;;;;;;44.70;20.80;;;;;;;-3.83;85.18;99079.23;108322;1302;22234;-47
2023/12/05 01:46:51;;;;;;;43.00;20.70;;;;;;;-3.91;85.42;99075.98;108347;1303;22382;-48
2023/12/05 01:49:17;;;;;;;44.40;21.90;;;;;;;-3.97;85.59;99074.96;108321;1303;22228;-46
2023/12/05 01:51:44;;;;;;;51.30;23.40;;;;;;;-4.03;85.88;99071.70;108321;1303;22487;-45
2023/12/05 01:54:09;;;;;;;46.70;21.30;;;;;;;-4.07;86.01;99065.55;108343;1303;22276;-47
2023/12/05 01:56:35;;;;;;;42.00;21.30;;;;;;;-4.10;86.14;99056.30;108339;1303;22246;-49
2023/12/05 01:59:01;;;;;;;49.10;24.20;;;;;;;-4.11;86.22;99055.44;108350;1303;22392;-45
2023/12/05 02:01:27;;;;;;;49.60;24.60;;;;;;;-4.13;86.39;99056.30;108343;1302;23040;-44
2023/12/05 02:03:52;;;;;;;45.50;22.50;;;;;;;-4.12;86.42;99052.19;108338;1303;22975;-46
2023/12/05 02:06:18;;;;;;;49.30;23.70;;;;;;;-4.10;86.31;99045.85;108364;1303;22448;-47
2023/12/05 02:08:45;;;;;;;46.30;22.80;;;;;;;-4.08;86.18;99046.88;108328;1303;23001;-47
2023/12/05 02:11:11;;;;;;;46.30;22.10;;;;;;;-4.06;86.23;99042.25;108331;1303;22256;-49
2023/12/05 02:13:37;;;;;;;45.20;21.00;;;;;;;-4.05;86.17;99045.69;108334;1302;22417;-45
2023/12/05 02:16:37;;;;;;;40.70;20.40;;;;;;;-4.02;86.12;99044.31;108340;1303;22260;-44
2023/12/05 02:19:25;;;;;;;44.90;21.70;;;;;;;-3.98;86.13;99044.14;107769;1308;22972;-46
2023/12/05 02:21:53;;;;;;;44.40;20.90;;;;;;;-3.95;85.94;99043.28;107344;1308;133910;-46
2023/12/05 02:24:40;;;;;;;39.40;19.50;;;;;;;-3.96;85.83;99043.27;107736;1308;23192;-46
2023/12/05 02:27:41;;;;;;;44.50;20.10;;;;;;;-3.94;85.69;99041.23;107755;1308;22532;-46
2023/12/05 02:30:09;;;;;;;41.60;20.20;;;;;;;-3.93;85.65;99039.86;107038;1315;22302;-46
2023/12/05 02:32:34;;;;;;;47.60;21.70;;;;;;;-3.91;85.66;99037.28;107049;1315;23052;-44
2023/12/05 02:35:00;;;;;;;39.30;20.70;;;;;;;-3.92;85.66;99036.09;107058;1315;23311;-46
2023/12/05 02:38:05;;;;;;;38.50;19.40;;;;;;;-3.94;85.76;99035.74;107055;1315;23253;-47
2023/12/05 02:43:48;;;;;;;42.50;20.60;;;;;;;-3.95;85.84;99032.65;106837;1307;558687;-42
2023/12/05 02:46:17;;;;;;;39.70;20.50;;;;;;;-4.00;85.62;99029.23;107185;1315;22640;-46
2023/12/05 02:48:44;;;;;;;42.40;19.70;;;;;;;-3.99;85.65;99022.56;107199;1315;22399;-45
2023/12/05 02:51:10;;;;;;;43.80;19.90;;;;;;;-4.05;85.49;99021.36;107235;1313;22403;-45
2023/12/05 02:53:36;;;;;;;42.60;19.80;;;;;;;-4.08;85.71;99021.72;107246;1314;22254;-46
2023/12/05 02:56:01;;;;;;;40.70;19.90;;;;;;;-4.09;85.86;99022.58;107132;1311;167209;-47
2023/12/05 02:58:28;;;;;;;38.00;20.40;;;;;;;-4.08;86.00;99020.51;107611;1310;22446;-45
2023/12/05 03:00:53;;;;;;;40.80;19.80;;;;;;;-4.07;86.10;99023.26;107839;1307;23107;-44
2023/12/05 03:03:18;;;;;;;44.60;21.50;;;;;;;-4.06;86.18;99020.70;107811;1307;23001;-46
2023/12/05 03:05:44;;;;;;;50.40;22.90;;;;;;;-4.03;86.13;99021.38;107814;1307;22984;-46
2023/12/05 03:08:09;;;;;;;44.40;20.80;;;;;;;-4.01;86.00;99017.77;107742;1307;22311;-46
2023/12/05 03:10:35;;;;;;;43.40;21.40;;;;;;;-4.02;85.84;99022.41;107823;1297;22378;-48
2023/12/05 03:13:00;;;;;;;42.50;20.00;;;;;;;-3.99;85.87;99022.90;107823;1307;23032;-46
2023/12/05 03:15:25;;;;;;;41.50;19.60;;;;;;;-3.97;85.83;99024.10;107830;1307;23016;-47
2023/12/05 03:17:51;;;;;;;38.80;19.40;;;;;;;-3.92;85.79;99019.83;107811;1307;22934;-45
2023/12/05 03:20:16;;;;;;;37.80;20.30;;;;;;;-3.91;85.48;99020.84;107822;1307;22473;-47
2023/12/05 03:22:41;;;;;;;42.70;21.10;;;;;;;-3.86;85.36;99022.71;107854;1307;23130;-46
2023/12/05 03:25:07;;;;;;;46.40;22.00;;;;;;;-3.82;85.46;99023.73;107798;1307;22246;-46
2023/12/05 03:27:32;;;;;;;43.30;21.30;;;;;;;-3.80;85.08;99027.84;107908;1307;22992;-46
2023/12/05 03:29:58;;;;;;;52.30;23.30;;;;;;;-3.80;84.86;99023.39;108009;1307;22250;-47
2023/12/05 03:32:23;;;;;;;55.90;27.90;;;;;;;-3.80;84.86;99022.02;108014;1306;23195;-46
2023/12/05 03:34:49;;;;;;;51.60;26.10;;;;;;;-3.76;84.94;99021.33;108032;1306;22265;-45
2023/12/05 03:37:14;;;;;;;50.10;24.50;;;;;;;-3.73;84.90;99020.64;108011;1306;22251;-44
2023/12/05 03:39:39;;;;;;;53.90;27.10;;;;;;;-3.70;84.97;99020.98;108034;1306;22434;-46
